sensor_id;sensor_type;location;lat;lon;timestamp;P1;durP1;ratioP1;P2;durP2;ratioP2
71606;SDS011;60641;53.556;9.914;2024-02-26T00:01:46;7.00;;;3.30;;
71606;SDS011;60641;53.556;9.914;2024-02-26T00:04:13;7.20;;;3.40;;
71606;SDS011;60641;53.556;9.914;2024-02-26T00:06:39;7.00;;;3.30;;
71606;SDS011;60641;53.556;9.914;2024-02-26T00:09:09;7.70;;;3.40;;
71606;SDS011;60641;53.556;9.914;2024-02-26T00:11:36;9.50;;;3.20;;
71606;SDS011;60641;53.556;9.914;2024-02-26T00:14:03;7.50;;;3.40;;
71606;SDS011;60641;53.556;9.914;2024-02-26T00:16:30;8.50;;;3.40;;
71606;SDS011;60641;53.556;9.914;2024-02-26T00:18:57;7.60;;;3.40;;
71606;SDS011;60641;53.556;9.914;2024-02-26T00:21:23;7.40;;;3.60;;
71606;SDS011;60641;53.556;9.914;2024-02-26T00:23:50;7.50;;;3.60;;
71606;SDS011;60641;53.556;9.914;2024-02-26T00:26:17;6.70;;;3.20;;
71606;SDS011;60641;53.556;9.914;2024-02-26T00:28:43;7.50;;;3.40;;
71606;SDS011;60641;53.556;9.914;2024-02-26T00:31:10;8.20;;;3.70;;
71606;SDS011;60641;53.556;9.914;2024-02-26T00:33:37;8.10;;;3.90;;
71606;SDS011;60641;53.556;9.914;2024-02-26T00:36:04;7.20;;;3.50;;
71606;SDS011;60641;53.556;9.914;2024-02-26T00:38:31;9.10;;;3.70;;
71606;SDS011;60641;53.556;9.914;2024-02-26T00:40:58;7.30;;;3.60;;
71606;SDS011;60641;53.556;9.914;2024-02-26T00:43:24;7.50;;;3.80;;
71606;SDS011;60641;53.556;9.914;2024-02-26T00:45:50;8.50;;;3.60;;
71606;SDS011;60641;53.556;9.914;2024-02-26T00:48:18;7.60;;;3.80;;
71606;SDS011;60641;53.556;9.914;2024-02-26T00:50:45;6.70;;;3.40;;
71606;SDS011;60641;53.556;9.914;2024-02-26T00:53:11;7.30;;;3.70;;
71606;SDS011;60641;53.556;9.914;2024-02-26T00:55:38;8.40;;;3.70;;
71606;SDS011;60641;53.556;9.914;2024-02-26T00:58:04;8.00;;;4.00;;
71606;SDS011;60641;53.556;9.914;2024-02-26T01:00:30;7.40;;;3.90;;
71606;SDS011;60641;53.556;9.914;2024-02-26T01:02:57;7.70;;;3.70;;
71606;SDS011;60641;53.556;9.914;2024-02-26T01:05:25;8.40;;;4.00;;
71606;SDS011;60641;53.556;9.914;2024-02-26T01:07:52;8.20;;;3.80;;
71606;SDS011;60641;53.556;9.914;2024-02-26T01:10:18;8.40;;;4.00;;
71606;SDS011;60641;53.556;9.914;2024-02-26T01:12:45;9.30;;;4.00;;
71606;SDS011;60641;53.556;9.914;2024-02-26T01:15:11;7.80;;;3.90;;
71606;SDS011;60641;53.556;9.914;2024-02-26T01:17:38;8.40;;;4.20;;
71606;SDS011;60641;53.556;9.914;2024-02-26T01:20:05;8.80;;;4.40;;
71606;SDS011;60641;53.556;9.914;2024-02-26T01:22:32;7.70;;;4.20;;
71606;SDS011;60641;53.556;9.914;2024-02-26T01:24:59;7.80;;;3.90;;
71606;SDS011;60641;53.556;9.914;2024-02-26T01:27:25;8.70;;;4.20;;
71606;SDS011;60641;53.556;9.914;2024-02-26T01:29:53;8.10;;;4.00;;
71606;SDS011;60641;53.556;9.914;2024-02-26T01:32:19;9.00;;;4.10;;
71606;SDS011;60641;53.556;9.914;2024-02-26T01:34:46;8.00;;;4.00;;
71606;SDS011;60641;53.556;9.914;2024-02-26T01:37:12;8.90;;;4.50;;
71606;SDS011;60641;53.556;9.914;2024-02-26T01:39:39;8.60;;;4.50;;
71606;SDS011;60641;53.556;9.914;2024-02-26T01:42:07;9.30;;;4.80;;
71606;SDS011;60641;53.556;9.914;2024-02-26T01:44:34;10.20;;;4.40;;
71606;SDS011;60641;53.556;9.914;2024-02-26T01:47:00;9.20;;;4.00;;
71606;SDS011;60641;53.556;9.914;2024-02-26T01:49:27;8.80;;;4.50;;
71606;SDS011;60641;53.556;9.914;2024-02-26T01:51:54;10.20;;;4.50;;
71606;SDS011;60641;53.556;9.914;2024-02-26T01:54:21;9.00;;;4.50;;
71606;SDS011;60641;53.556;9.914;2024-02-26T01:56:47;10.40;;;5.40;;
71606;SDS011;60641;53.556;9.914;2024-02-26T01:59:15;8.90;;;4.90;;
71606;SDS011;60641;53.556;9.914;2024-02-26T02:01:42;8.40;;;4.20;;
71606;SDS011;60641;53.556;9.914;2024-02-26T02:04:11;9.30;;;4.40;;
71606;SDS011;60641;53.556;9.914;2024-02-26T02:06:38;9.80;;;4.90;;
71606;SDS011;60641;53.556;9.914;2024-02-26T02:09:04;10.00;;;4.80;;
71606;SDS011;60641;53.556;9.914;2024-02-26T02:11:33;10.70;;;5.50;;
71606;SDS011;60641;53.556;9.914;2024-02-26T02:13:59;11.90;;;5.60;;
71606;SDS011;60641;53.556;9.914;2024-02-26T02:16:26;11.70;;;5.60;;
71606;SDS011;60641;53.556;9.914;2024-02-26T02:18:52;11.20;;;6.00;;
71606;SDS011;60641;53.556;9.914;2024-02-26T02:21:19;11.60;;;6.00;;
71606;SDS011;60641;53.556;9.914;2024-02-26T02:23:45;12.10;;;6.00;;
71606;SDS011;60641;53.556;9.914;2024-02-26T02:26:13;12.70;;;6.30;;
71606;SDS011;60641;53.556;9.914;2024-02-26T02:28:40;11.30;;;5.70;;
71606;SDS011;60641;53.556;9.914;2024-02-26T02:31:07;12.30;;;6.50;;
71606;SDS011;60641;53.556;9.914;2024-02-26T02:33:34;13.30;;;5.90;;
71606;SDS011;60641;53.556;9.914;2024-02-26T02:36:01;12.80;;;6.10;;
71606;SDS011;60641;53.556;9.914;2024-02-26T02:38:27;12.80;;;6.40;;
71606;SDS011;60641;53.556;9.914;2024-02-26T02:40:56;12.00;;;5.90;;
71606;SDS011;60641;53.556;9.914;2024-02-26T02:43:22;11.90;;;6.60;;
71606;SDS011;60641;53.556;9.914;2024-02-26T02:45:48;12.30;;;6.20;;
71606;SDS011;60641;53.556;9.914;2024-02-26T02:48:15;11.70;;;5.80;;
71606;SDS011;60641;53.556;9.914;2024-02-26T02:50:41;13.50;;;6.90;;
71606;SDS011;60641;53.556;9.914;2024-02-26T02:53:08;12.60;;;6.90;;
71606;SDS011;60641;53.556;9.914;2024-02-26T02:55:34;13.10;;;6.70;;
71606;SDS011;60641;53.556;9.914;2024-02-26T02:58:01;13.30;;;7.40;;
71606;SDS011;60641;53.556;9.914;2024-02-26T03:00:27;13.50;;;7.40;;
71606;SDS011;60641;53.556;9.914;2024-02-26T03:02:54;12.80;;;7.20;;
71606;SDS011;60641;53.556;9.914;2024-02-26T03:05:21;13.80;;;7.00;;
71606;SDS011;60641;53.556;9.914;2024-02-26T03:07:47;12.80;;;6.80;;
71606;SDS011;60641;53.556;9.914;2024-02-26T03:10:14;12.40;;;7.00;;
71606;SDS011;60641;53.556;9.914;2024-02-26T03:12:40;13.60;;;7.90;;
71606;SDS011;60641;53.556;9.914;2024-02-26T03:15:07;15.20;;;7.80;;
71606;SDS011;60641;53.556;9.914;2024-02-26T03:17:33;13.70;;;7.30;;
71606;SDS011;60641;53.556;9.914;2024-02-26T03:20:00;14.00;;;7.70;;
71606;SDS011;60641;53.556;9.914;2024-02-26T03:22:26;13.90;;;8.00;;
71606;SDS011;60641;53.556;9.914;2024-02-26T03:24:53;12.20;;;7.30;;
71606;SDS011;60641;53.556;9.914;2024-02-26T03:27:19;13.30;;;7.60;;
71606;SDS011;60641;53.556;9.914;2024-02-26T03:29:46;12.70;;;7.20;;
71606;SDS011;60641;53.556;9.914;2024-02-26T03:32:13;13.90;;;7.70;;
71606;SDS011;60641;53.556;9.914;2024-02-26T03:34:40;13.00;;;7.60;;
71606;SDS011;60641;53.556;9.914;2024-02-26T03:37:07;14.00;;;7.80;;
71606;SDS011;60641;53.556;9.914;2024-02-26T03:39:35;13.80;;;7.50;;
71606;SDS011;60641;53.556;9.914;2024-02-26T03:42:01;14.60;;;8.10;;
71606;SDS011;60641;53.556;9.914;2024-02-26T03:44:29;14.30;;;7.80;;
71606;SDS011;60641;53.556;9.914;2024-02-26T03:46:55;15.00;;;7.70;;
71606;SDS011;60641;53.556;9.914;2024-02-26T03:49:22;14.10;;;8.00;;
71606;SDS011;60641;53.556;9.914;2024-02-26T03:51:48;12.80;;;7.40;;
71606;SDS011;60641;53.556;9.914;2024-02-26T03:54:15;14.10;;;7.50;;
71606;SDS011;60641;53.556;9.914;2024-02-26T03:56:41;14.10;;;7.90;;
71606;SDS011;60641;53.556;9.914;2024-02-26T03:59:08;13.80;;;7.80;;
71606;SDS011;60641;53.556;9.914;2024-02-26T04:01:34;14.50;;;7.80;;
71606;SDS011;60641;53.556;9.914;2024-02-26T04:04:00;14.80;;;7.90;;
71606;SDS011;60641;53.556;9.914;2024-02-26T04:06:27;13.60;;;7.70;;
71606;SDS011;60641;53.556;9.914;2024-02-26T04:08:54;15.20;;;8.20;;
71606;SDS011;60641;53.556;9.914;2024-02-26T04:11:20;15.10;;;8.80;;
71606;SDS011;60641;53.556;9.914;2024-02-26T04:13:47;15.40;;;8.50;;
71606;SDS011;60641;53.556;9.914;2024-02-26T04:16:17;17.00;;;9.60;;
71606;SDS011;60641;53.556;9.914;2024-02-26T04:18:44;15.10;;;8.30;;
71606;SDS011;60641;53.556;9.914;2024-02-26T04:21:10;17.50;;;9.40;;
71606;SDS011;60641;53.556;9.914;2024-02-26T04:23:37;15.30;;;8.40;;
71606;SDS011;60641;53.556;9.914;2024-02-26T04:26:04;15.60;;;9.00;;
71606;SDS011;60641;53.556;9.914;2024-02-26T04:28:31;14.40;;;8.40;;
71606;SDS011;60641;53.556;9.914;2024-02-26T04:30:58;15.70;;;8.50;;
71606;SDS011;60641;53.556;9.914;2024-02-26T04:33:24;15.50;;;8.90;;
71606;SDS011;60641;53.556;9.914;2024-02-26T04:35:51;17.70;;;9.50;;
71606;SDS011;60641;53.556;9.914;2024-02-26T04:38:17;15.30;;;9.00;;
71606;SDS011;60641;53.556;9.914;2024-02-26T04:40:44;16.20;;;9.40;;
71606;SDS011;60641;53.556;9.914;2024-02-26T04:43:10;15.30;;;9.30;;
71606;SDS011;60641;53.556;9.914;2024-02-26T04:45:37;15.80;;;9.10;;
71606;SDS011;60641;53.556;9.914;2024-02-26T04:48:04;16.10;;;8.90;;
71606;SDS011;60641;53.556;9.914;2024-02-26T04:50:30;15.70;;;8.60;;
71606;SDS011;60641;53.556;9.914;2024-02-26T04:52:57;16.30;;;9.20;;
71606;SDS011;60641;53.556;9.914;2024-02-26T04:55:24;19.30;;;11.10;;
71606;SDS011;60641;53.556;9.914;2024-02-26T04:57:50;16.00;;;9.00;;
71606;SDS011;60641;53.556;9.914;2024-02-26T05:00:16;17.60;;;9.90;;
71606;SDS011;60641;53.556;9.914;2024-02-26T05:02:43;18.50;;;10.10;;
71606;SDS011;60641;53.556;9.914;2024-02-26T05:05:10;16.30;;;9.20;;
71606;SDS011;60641;53.556;9.914;2024-02-26T05:07:41;15.90;;;8.80;;
71606;SDS011;60641;53.556;9.914;2024-02-26T05:10:09;16.90;;;9.60;;
71606;SDS011;60641;53.556;9.914;2024-02-26T05:12:36;17.10;;;9.90;;
71606;SDS011;60641;53.556;9.914;2024-02-26T05:15:03;16.90;;;10.00;;
71606;SDS011;60641;53.556;9.914;2024-02-26T05:17:30;17.20;;;9.80;;
71606;SDS011;60641;53.556;9.914;2024-02-26T05:19:56;17.20;;;9.60;;
71606;SDS011;60641;53.556;9.914;2024-02-26T05:22:22;18.70;;;9.90;;
71606;SDS011;60641;53.556;9.914;2024-02-26T05:24:50;18.20;;;9.90;;
71606;SDS011;60641;53.556;9.914;2024-02-26T05:27:17;16.70;;;9.60;;
71606;SDS011;60641;53.556;9.914;2024-02-26T05:29:44;18.30;;;10.30;;
71606;SDS011;60641;53.556;9.914;2024-02-26T05:32:10;16.20;;;9.10;;
71606;SDS011;60641;53.556;9.914;2024-02-26T05:34:36;17.60;;;9.60;;
71606;SDS011;60641;53.556;9.914;2024-02-26T05:37:03;17.70;;;10.40;;
71606;SDS011;60641;53.556;9.914;2024-02-26T05:39:29;17.00;;;9.70;;
71606;SDS011;60641;53.556;9.914;2024-02-26T05:41:56;17.00;;;9.40;;
71606;SDS011;60641;53.556;9.914;2024-02-26T05:44:22;14.50;;;6.90;;
71606;SDS011;60641;53.556;9.914;2024-02-26T05:46:49;16.60;;;9.50;;
71606;SDS011;60641;53.556;9.914;2024-02-26T05:49:16;16.80;;;9.40;;
71606;SDS011;60641;53.556;9.914;2024-02-26T05:51:42;16.40;;;9.30;;
71606;SDS011;60641;53.556;9.914;2024-02-26T05:54:09;17.10;;;9.60;;
71606;SDS011;60641;53.556;9.914;2024-02-26T05:56:37;15.30;;;8.70;;
71606;SDS011;60641;53.556;9.914;2024-02-26T05:59:04;17.30;;;9.60;;
71606;SDS011;60641;53.556;9.914;2024-02-26T06:01:30;17.70;;;9.60;;
71606;SDS011;60641;53.556;9.914;2024-02-26T06:03:57;16.90;;;10.00;;
71606;SDS011;60641;53.556;9.914;2024-02-26T06:06:23;15.50;;;9.20;;
71606;SDS011;60641;53.556;9.914;2024-02-26T06:08:50;18.50;;;9.60;;
71606;SDS011;60641;53.556;9.914;2024-02-26T06:11:16;15.50;;;9.30;;
71606;SDS011;60641;53.556;9.914;2024-02-26T06:13:43;16.00;;;9.40;;
71606;SDS011;60641;53.556;9.914;2024-02-26T06:16:09;14.60;;;8.40;;
71606;SDS011;60641;53.556;9.914;2024-02-26T06:18:36;15.20;;;7.30;;
71606;SDS011;60641;53.556;9.914;2024-02-26T06:21:02;16.10;;;8.80;;
71606;SDS011;60641;53.556;9.914;2024-02-26T06:23:29;15.70;;;9.20;;
71606;SDS011;60641;53.556;9.914;2024-02-26T06:25:55;14.80;;;7.30;;
71606;SDS011;60641;53.556;9.914;2024-02-26T06:28:22;15.40;;;9.30;;
71606;SDS011;60641;53.556;9.914;2024-02-26T06:30:48;14.10;;;7.60;;
71606;SDS011;60641;53.556;9.914;2024-02-26T06:33:16;16.20;;;8.80;;
71606;SDS011;60641;53.556;9.914;2024-02-26T06:35:43;16.30;;;9.00;;
71606;SDS011;60641;53.556;9.914;2024-02-26T06:38:10;14.20;;;7.50;;
71606;SDS011;60641;53.556;9.914;2024-02-26T06:40:39;17.50;;;9.20;;
71606;SDS011;60641;53.556;9.914;2024-02-26T06:43:05;18.00;;;9.30;;
71606;SDS011;60641;53.556;9.914;2024-02-26T06:45:32;15.80;;;8.80;;
71606;SDS011;60641;53.556;9.914;2024-02-26T06:47:58;20.20;;;9.70;;
71606;SDS011;60641;53.556;9.914;2024-02-26T06:50:25;19.20;;;10.60;;
71606;SDS011;60641;53.556;9.914;2024-02-26T06:52:51;17.00;;;7.60;;
71606;SDS011;60641;53.556;9.914;2024-02-26T06:55:18;17.90;;;9.80;;
71606;SDS011;60641;53.556;9.914;2024-02-26T06:57:44;18.80;;;9.70;;
71606;SDS011;60641;53.556;9.914;2024-02-26T07:00:11;16.80;;;9.70;;
71606;SDS011;60641;53.556;9.914;2024-02-26T07:02:41;18.50;;;9.40;;
71606;SDS011;60641;53.556;9.914;2024-02-26T07:05:07;17.80;;;9.00;;
71606;SDS011;60641;53.556;9.914;2024-02-26T07:07:34;19.10;;;10.70;;
71606;SDS011;60641;53.556;9.914;2024-02-26T07:10:01;18.00;;;9.90;;
71606;SDS011;60641;53.556;9.914;2024-02-26T07:12:30;16.70;;;9.30;;
71606;SDS011;60641;53.556;9.914;2024-02-26T07:14:56;17.80;;;9.80;;
71606;SDS011;60641;53.556;9.914;2024-02-26T07:17:24;18.50;;;10.30;;
71606;SDS011;60641;53.556;9.914;2024-02-26T07:19:51;19.30;;;10.70;;
71606;SDS011;60641;53.556;9.914;2024-02-26T07:22:17;17.30;;;10.00;;
71606;SDS011;60641;53.556;9.914;2024-02-26T07:24:43;17.90;;;9.70;;
71606;SDS011;60641;53.556;9.914;2024-02-26T07:27:10;17.60;;;9.70;;
71606;SDS011;60641;53.556;9.914;2024-02-26T07:29:36;16.40;;;9.30;;
71606;SDS011;60641;53.556;9.914;2024-02-26T07:32:03;18.20;;;9.40;;
71606;SDS011;60641;53.556;9.914;2024-02-26T07:34:30;17.70;;;9.60;;
71606;SDS011;60641;53.556;9.914;2024-02-26T07:36:56;18.40;;;9.60;;
71606;SDS011;60641;53.556;9.914;2024-02-26T07:39:23;15.70;;;8.30;;
71606;SDS011;60641;53.556;9.914;2024-02-26T07:41:49;20.50;;;10.70;;
71606;SDS011;60641;53.556;9.914;2024-02-26T07:44:17;17.20;;;9.60;;
71606;SDS011;60641;53.556;9.914;2024-02-26T07:46:44;20.50;;;10.20;;
71606;SDS011;60641;53.556;9.914;2024-02-26T07:49:11;18.40;;;10.10;;
71606;SDS011;60641;53.556;9.914;2024-02-26T07:51:37;16.40;;;9.40;;
71606;SDS011;60641;53.556;9.914;2024-02-26T07:54:03;16.70;;;9.40;;
71606;SDS011;60641;53.556;9.914;2024-02-26T07:56:30;20.50;;;9.70;;
71606;SDS011;60641;53.556;9.914;2024-02-26T07:58:56;18.60;;;9.90;;
71606;SDS011;60641;53.556;9.914;2024-02-26T08:01:23;16.90;;;9.10;;
71606;SDS011;60641;53.556;9.914;2024-02-26T08:03:49;17.50;;;9.80;;
71606;SDS011;60641;53.556;9.914;2024-02-26T08:06:16;18.40;;;9.60;;
71606;SDS011;60641;53.556;9.914;2024-02-26T08:08:42;18.50;;;9.30;;
71606;SDS011;60641;53.556;9.914;2024-02-26T08:11:10;15.70;;;8.90;;
71606;SDS011;60641;53.556;9.914;2024-02-26T08:13:36;19.00;;;10.00;;
71606;SDS011;60641;53.556;9.914;2024-02-26T08:16:03;18.50;;;10.20;;
71606;SDS011;60641;53.556;9.914;2024-02-26T08:18:29;19.40;;;10.00;;
71606;SDS011;60641;53.556;9.914;2024-02-26T08:20:56;20.50;;;10.40;;
71606;SDS011;60641;53.556;9.914;2024-02-26T08:23:22;17.40;;;9.50;;
71606;SDS011;60641;53.556;9.914;2024-02-26T08:25:48;23.30;;;10.30;;
71606;SDS011;60641;53.556;9.914;2024-02-26T08:28:15;19.50;;;10.50;;
71606;SDS011;60641;53.556;9.914;2024-02-26T08:30:44;19.20;;;10.60;;
71606;SDS011;60641;53.556;9.914;2024-02-26T08:33:10;20.00;;;10.30;;
71606;SDS011;60641;53.556;9.914;2024-02-26T08:35:37;19.40;;;10.10;;
71606;SDS011;60641;53.556;9.914;2024-02-26T08:38:04;18.10;;;10.60;;
71606;SDS011;60641;53.556;9.914;2024-02-26T08:40:30;18.40;;;10.20;;
71606;SDS011;60641;53.556;9.914;2024-02-26T08:42:57;18.20;;;9.90;;
71606;SDS011;60641;53.556;9.914;2024-02-26T08:45:23;20.20;;;9.60;;
71606;SDS011;60641;53.556;9.914;2024-02-26T08:47:50;18.90;;;10.40;;
71606;SDS011;60641;53.556;9.914;2024-02-26T08:50:17;18.10;;;9.90;;
71606;SDS011;60641;53.556;9.914;2024-02-26T08:52:43;20.70;;;10.60;;
71606;SDS011;60641;53.556;9.914;2024-02-26T08:55:10;15.70;;;7.80;;
71606;SDS011;60641;53.556;9.914;2024-02-26T08:57:37;19.50;;;10.60;;
71606;SDS011;60641;53.556;9.914;2024-02-26T09:00:05;20.50;;;9.80;;
71606;SDS011;60641;53.556;9.914;2024-02-26T09:02:32;18.60;;;10.20;;
71606;SDS011;60641;53.556;9.914;2024-02-26T09:04:59;19.00;;;10.50;;
71606;SDS011;60641;53.556;9.914;2024-02-26T09:07:25;21.00;;;10.10;;
71606;SDS011;60641;53.556;9.914;2024-02-26T09:09:52;17.50;;;9.30;;
71606;SDS011;60641;53.556;9.914;2024-02-26T09:12:18;19.10;;;9.30;;
71606;SDS011;60641;53.556;9.914;2024-02-26T09:14:46;19.70;;;9.40;;
71606;SDS011;60641;53.556;9.914;2024-02-26T09:17:12;19.30;;;10.40;;
71606;SDS011;60641;53.556;9.914;2024-02-26T09:19:39;17.60;;;9.20;;
71606;SDS011;60641;53.556;9.914;2024-02-26T09:22:05;21.70;;;10.50;;
71606;SDS011;60641;53.556;9.914;2024-02-26T09:24:32;17.70;;;8.60;;
71606;SDS011;60641;53.556;9.914;2024-02-26T09:26:58;17.60;;;9.60;;
71606;SDS011;60641;53.556;9.914;2024-02-26T09:29:24;23.10;;;8.80;;
71606;SDS011;60641;53.556;9.914;2024-02-26T09:31:52;16.20;;;8.00;;
71606;SDS011;60641;53.556;9.914;2024-02-26T09:34:19;18.30;;;9.20;;
71606;SDS011;60641;53.556;9.914;2024-02-26T09:36:45;19.10;;;9.60;;
71606;SDS011;60641;53.556;9.914;2024-02-26T09:39:12;17.40;;;8.70;;
71606;SDS011;60641;53.556;9.914;2024-02-26T09:41:40;15.40;;;8.20;;
71606;SDS011;60641;53.556;9.914;2024-02-26T09:44:07;16.50;;;9.30;;
71606;SDS011;60641;53.556;9.914;2024-02-26T09:46:35;18.20;;;8.60;;
71606;SDS011;60641;53.556;9.914;2024-02-26T09:49:02;16.60;;;8.60;;
71606;SDS011;60641;53.556;9.914;2024-02-26T09:51:28;18.10;;;8.00;;
71606;SDS011;60641;53.556;9.914;2024-02-26T09:53:55;15.90;;;8.70;;
71606;SDS011;60641;53.556;9.914;2024-02-26T09:56:22;16.90;;;8.40;;
71606;SDS011;60641;53.556;9.914;2024-02-26T09:58:49;16.00;;;8.50;;
71606;SDS011;60641;53.556;9.914;2024-02-26T10:01:19;19.70;;;7.60;;
71606;SDS011;60641;53.556;9.914;2024-02-26T10:03:48;17.00;;;8.50;;
71606;SDS011;60641;53.556;9.914;2024-02-26T10:06:18;18.70;;;7.90;;
71606;SDS011;60641;53.556;9.914;2024-02-26T10:08:45;16.90;;;8.90;;
71606;SDS011;60641;53.556;9.914;2024-02-26T10:11:12;17.70;;;8.70;;
71606;SDS011;60641;53.556;9.914;2024-02-26T10:13:39;18.30;;;8.80;;
71606;SDS011;60641;53.556;9.914;2024-02-26T10:16:06;19.00;;;9.40;;
71606;SDS011;60641;53.556;9.914;2024-02-26T10:18:54;17.20;;;9.30;;
71606;SDS011;60641;53.556;9.914;2024-02-26T10:21:20;17.50;;;9.10;;
71606;SDS011;60641;53.556;9.914;2024-02-26T10:23:47;16.90;;;8.80;;
71606;SDS011;60641;53.556;9.914;2024-02-26T10:26:14;18.00;;;9.20;;
71606;SDS011;60641;53.556;9.914;2024-02-26T10:28:42;15.60;;;8.10;;
71606;SDS011;60641;53.556;9.914;2024-02-26T10:31:09;17.60;;;9.30;;
71606;SDS011;60641;53.556;9.914;2024-02-26T10:33:36;17.90;;;9.50;;
71606;SDS011;60641;53.556;9.914;2024-02-26T10:36:04;17.10;;;8.60;;
71606;SDS011;60641;53.556;9.914;2024-02-26T10:38:35;18.60;;;9.60;;
71606;SDS011;60641;53.556;9.914;2024-02-26T10:41:03;18.20;;;8.10;;
71606;SDS011;60641;53.556;9.914;2024-02-26T10:43:32;17.40;;;9.40;;
71606;SDS011;60641;53.556;9.914;2024-02-26T10:45:59;19.10;;;8.80;;
71606;SDS011;60641;53.556;9.914;2024-02-26T10:48:25;17.80;;;9.10;;
71606;SDS011;60641;53.556;9.914;2024-02-26T10:50:52;17.10;;;8.80;;
71606;SDS011;60641;53.556;9.914;2024-02-26T10:53:22;19.60;;;9.00;;
71606;SDS011;60641;53.556;9.914;2024-02-26T10:55:52;18.10;;;9.10;;
71606;SDS011;60641;53.556;9.914;2024-02-26T10:58:21;18.10;;;9.30;;
71606;SDS011;60641;53.556;9.914;2024-02-26T11:00:49;18.90;;;8.70;;
71606;SDS011;60641;53.556;9.914;2024-02-26T11:03:17;18.20;;;8.90;;
71606;SDS011;60641;53.556;9.914;2024-02-26T11:05:47;16.50;;;8.60;;
71606;SDS011;60641;53.556;9.914;2024-02-26T11:08:15;17.40;;;8.90;;
71606;SDS011;60641;53.556;9.914;2024-02-26T11:10:42;16.80;;;8.00;;
71606;SDS011;60641;53.556;9.914;2024-02-26T11:13:09;17.00;;;8.00;;
71606;SDS011;60641;53.556;9.914;2024-02-26T11:15:37;18.50;;;9.50;;
71606;SDS011;60641;53.556;9.914;2024-02-26T11:18:03;17.90;;;9.30;;
71606;SDS011;60641;53.556;9.914;2024-02-26T11:20:30;18.90;;;8.20;;
71606;SDS011;60641;53.556;9.914;2024-02-26T11:22:58;19.60;;;10.10;;
71606;SDS011;60641;53.556;9.914;2024-02-26T11:25:25;20.30;;;10.40;;
71606;SDS011;60641;53.556;9.914;2024-02-26T11:27:55;19.00;;;10.10;;
71606;SDS011;60641;53.556;9.914;2024-02-26T11:30:25;18.00;;;8.90;;
71606;SDS011;60641;53.556;9.914;2024-02-26T11:32:52;16.70;;;8.90;;
71606;SDS011;60641;53.556;9.914;2024-02-26T11:35:19;17.20;;;9.50;;
71606;SDS011;60641;53.556;9.914;2024-02-26T11:37:55;17.90;;;8.70;;
71606;SDS011;60641;53.556;9.914;2024-02-26T11:40:25;19.20;;;9.50;;
71606;SDS011;60641;53.556;9.914;2024-02-26T11:42:52;16.60;;;8.50;;
71606;SDS011;60641;53.556;9.914;2024-02-26T11:45:47;19.10;;;10.10;;
71606;SDS011;60641;53.556;9.914;2024-02-26T11:48:16;19.10;;;9.90;;
71606;SDS011;60641;53.556;9.914;2024-02-26T11:50:48;17.40;;;8.90;;
71606;SDS011;60641;53.556;9.914;2024-02-26T11:58:43;16.10;;;8.70;;
71606;SDS011;60641;53.556;9.914;2024-02-26T12:04:02;17.10;;;8.90;;
71606;SDS011;60641;53.556;9.914;2024-02-26T12:06:31;16.00;;;8.70;;
71606;SDS011;60641;53.556;9.914;2024-02-26T12:08:57;16.60;;;8.60;;
71606;SDS011;60641;53.556;9.914;2024-02-26T12:11:27;21.20;;;9.20;;
71606;SDS011;60641;53.556;9.914;2024-02-26T12:13:53;17.60;;;8.00;;
71606;SDS011;60641;53.556;9.914;2024-02-26T12:16:37;16.30;;;8.50;;
71606;SDS011;60641;53.556;9.914;2024-02-26T12:19:05;15.90;;;8.10;;
71606;SDS011;60641;53.556;9.914;2024-02-26T12:21:36;15.00;;;7.40;;
71606;SDS011;60641;53.556;9.914;2024-02-26T12:24:13;13.50;;;6.40;;
71606;SDS011;60641;53.556;9.914;2024-02-26T12:26:40;13.70;;;6.90;;
71606;SDS011;60641;53.556;9.914;2024-02-26T12:29:07;14.80;;;7.70;;
71606;SDS011;60641;53.556;9.914;2024-02-26T12:31:34;13.10;;;6.10;;
71606;SDS011;60641;53.556;9.914;2024-02-26T12:34:03;15.30;;;8.10;;
71606;SDS011;60641;53.556;9.914;2024-02-26T12:36:30;14.40;;;7.70;;
71606;SDS011;60641;53.556;9.914;2024-02-26T12:38:57;14.30;;;8.20;;
71606;SDS011;60641;53.556;9.914;2024-02-26T12:41:23;15.60;;;8.30;;
71606;SDS011;60641;53.556;9.914;2024-02-26T12:43:50;16.30;;;8.60;;
71606;SDS011;60641;53.556;9.914;2024-02-26T12:46:16;16.90;;;8.30;;
71606;SDS011;60641;53.556;9.914;2024-02-26T12:48:43;12.40;;;6.50;;
71606;SDS011;60641;53.556;9.914;2024-02-26T12:51:14;19.40;;;8.10;;
71606;SDS011;60641;53.556;9.914;2024-02-26T12:53:42;19.00;;;9.50;;
71606;SDS011;60641;53.556;9.914;2024-02-26T12:56:10;23.00;;;11.60;;
71606;SDS011;60641;53.556;9.914;2024-02-26T12:58:38;17.20;;;9.10;;
71606;SDS011;60641;53.556;9.914;2024-02-26T13:01:05;16.50;;;9.30;;
71606;SDS011;60641;53.556;9.914;2024-02-26T13:03:32;16.10;;;8.40;;
71606;SDS011;60641;53.556;9.914;2024-02-26T13:06:01;16.60;;;8.30;;
71606;SDS011;60641;53.556;9.914;2024-02-26T13:08:28;15.60;;;8.30;;
71606;SDS011;60641;53.556;9.914;2024-02-26T13:10:55;15.50;;;8.50;;
71606;SDS011;60641;53.556;9.914;2024-02-26T13:13:22;14.70;;;8.00;;
71606;SDS011;60641;53.556;9.914;2024-02-26T13:15:48;14.30;;;7.50;;
71606;SDS011;60641;53.556;9.914;2024-02-26T13:18:15;13.20;;;6.70;;
71606;SDS011;60641;53.556;9.914;2024-02-26T13:20:41;14.00;;;6.90;;
71606;SDS011;60641;53.556;9.914;2024-02-26T13:23:11;15.20;;;7.10;;
71606;SDS011;60641;53.556;9.914;2024-02-26T13:25:38;15.90;;;7.30;;
71606;SDS011;60641;53.556;9.914;2024-02-26T13:28:23;14.60;;;7.80;;
71606;SDS011;60641;53.556;9.914;2024-02-26T13:30:54;16.70;;;8.20;;
71606;SDS011;60641;53.556;9.914;2024-02-26T13:33:24;16.70;;;8.80;;
71606;SDS011;60641;53.556;9.914;2024-02-26T13:35:51;17.10;;;8.50;;
71606;SDS011;60641;53.556;9.914;2024-02-26T13:38:18;14.20;;;6.70;;
71606;SDS011;60641;53.556;9.914;2024-02-26T13:40:45;15.10;;;7.70;;
71606;SDS011;60641;53.556;9.914;2024-02-26T13:43:11;16.50;;;8.50;;
71606;SDS011;60641;53.556;9.914;2024-02-26T13:45:38;16.90;;;8.30;;
71606;SDS011;60641;53.556;9.914;2024-02-26T13:48:05;16.70;;;8.70;;
71606;SDS011;60641;53.556;9.914;2024-02-26T13:50:33;18.20;;;7.90;;
71606;SDS011;60641;53.556;9.914;2024-02-26T13:53:00;17.70;;;8.70;;
71606;SDS011;60641;53.556;9.914;2024-02-26T13:55:26;16.40;;;8.10;;
71606;SDS011;60641;53.556;9.914;2024-02-26T13:57:58;17.00;;;8.70;;
71606;SDS011;60641;53.556;9.914;2024-02-26T14:00:27;20.40;;;9.50;;
71606;SDS011;60641;53.556;9.914;2024-02-26T14:02:55;17.70;;;9.00;;
71606;SDS011;60641;53.556;9.914;2024-02-26T14:05:21;16.20;;;8.40;;
71606;SDS011;60641;53.556;9.914;2024-02-26T14:07:48;16.10;;;7.80;;
71606;SDS011;60641;53.556;9.914;2024-02-26T14:10:14;15.60;;;7.30;;
71606;SDS011;60641;53.556;9.914;2024-02-26T14:12:42;15.00;;;7.30;;
71606;SDS011;60641;53.556;9.914;2024-02-26T14:15:09;15.10;;;8.00;;
71606;SDS011;60641;53.556;9.914;2024-02-26T14:17:36;18.70;;;9.20;;
71606;SDS011;60641;53.556;9.914;2024-02-26T14:20:03;18.70;;;8.60;;
71606;SDS011;60641;53.556;9.914;2024-02-26T14:22:30;16.70;;;8.60;;
71606;SDS011;60641;53.556;9.914;2024-02-26T14:24:57;16.20;;;8.00;;
71606;SDS011;60641;53.556;9.914;2024-02-26T14:27:24;16.40;;;8.00;;
71606;SDS011;60641;53.556;9.914;2024-02-26T14:29:51;16.00;;;7.80;;
71606;SDS011;60641;53.556;9.914;2024-02-26T14:32:17;16.30;;;8.40;;
71606;SDS011;60641;53.556;9.914;2024-02-26T14:34:44;17.10;;;8.50;;
71606;SDS011;60641;53.556;9.914;2024-02-26T14:37:10;16.20;;;8.50;;
71606;SDS011;60641;53.556;9.914;2024-02-26T14:39:37;16.80;;;7.80;;
71606;SDS011;60641;53.556;9.914;2024-02-26T14:42:04;16.40;;;8.40;;
71606;SDS011;60641;53.556;9.914;2024-02-26T14:44:31;13.70;;;7.60;;